Time;durP1;ratioP1;P1;durP2;ratioP2;P2;SDS_P1;SDS_P2;PMS_P1;PMS_P2;Temp;Humidity;BMP_temperature;BMP_pressure;BME280_temperature;BME280_humidity;BME280_pressure;Samples;Min_cycle;Max_cycle;Signal;HPM_P1;HPM_P2
2023/06/23 00:00:27;;;;;;;;;;;23.20;74.00;;;;;;6306591;22;20401;-69
2023/06/23 00:02:56;;;;;;;;;;;23.20;74.10;;;;;;6306352;22;20025;-69
2023/06/23 00:05:22;;;;;;;;;;;23.10;73.90;;;;;;6306593;22;19903;-69
2023/06/23 00:07:47;;;;;;;;;;;23.20;73.90;;;;;;6307113;22;19918;-70
2023/06/23 00:10:13;;;;;;;;;;;23.10;73.90;;;;;;6306806;22;20321;-70
2023/06/23 00:12:41;;;;;;;;;;;23.10;74.00;;;;;;6306416;22;20043;-71
2023/06/23 00:15:13;;;;;;;;;;;23.00;73.70;;;;;;6305798;22;20304;-70
2023/06/23 00:17:39;;;;;;;;;;;23.00;73.80;;;;;;6306749;22;19915;-69
2023/06/23 00:20:14;;;;;;;;;;;23.00;73.80;;;;;;6306437;22;20255;-69
2023/06/23 00:22:40;;;;;;;;;;;23.00;74.00;;;;;;6306620;22;19915;-69
2023/06/23 00:25:09;;;;;;;;;;;22.90;74.00;;;;;;6306539;22;19990;-70
2023/06/23 00:27:35;;;;;;;;;;;22.90;74.00;;;;;;6305520;22;19911;-69
2023/06/23 00:30:01;;;;;;;;;;;22.90;73.90;;;;;;6278506;22;19907;-69
2023/06/23 00:32:27;;;;;;;;;;;22.80;73.90;;;;;;6306300;22;19911;-70
2023/06/23 00:34:52;;;;;;;;;;;22.80;73.60;;;;;;6306345;22;19907;-70
2023/06/23 00:37:18;;;;;;;;;;;22.70;73.50;;;;;;6306351;22;19911;-70
2023/06/23 00:39:43;;;;;;;;;;;22.70;73.60;;;;;;6306231;22;19907;-69
2023/06/23 00:42:09;;;;;;;;;;;22.60;73.40;;;;;;6306663;22;20236;-69
2023/06/23 00:44:34;;;;;;;;;;;22.50;73.20;;;;;;6305838;22;19935;-69
2023/06/23 00:47:01;;;;;;;;;;;22.40;73.10;;;;;;6306180;22;19986;-69
2023/06/23 00:49:26;;;;;;;;;;;22.30;73.20;;;;;;6305798;22;19988;-69
2023/06/23 00:51:53;;;;;;;;;;;22.30;73.30;;;;;;6306631;22;19911;-69
2023/06/23 00:54:18;;;;;;;;;;;22.30;73.30;;;;;;6305986;22;19918;-69
2023/06/23 00:56:43;;;;;;;;;;;22.20;73.50;;;;;;6306438;22;19915;-69
2023/06/23 00:59:09;;;;;;;;;;;22.10;73.10;;;;;;6306004;22;19955;-69
2023/06/23 01:01:35;;;;;;;;;;;22.00;73.00;;;;;;6305571;22;19911;-69
2023/06/23 01:04:00;;;;;;;;;;;22.00;73.10;;;;;;6306078;22;19911;-69
2023/06/23 01:06:38;;;;;;;;;;;21.80;72.60;;;;;;6305923;22;19993;-70
2023/06/23 01:09:16;;;;;;;;;;;21.70;72.10;;;;;;6305680;22;19903;-69
2023/06/23 01:11:43;;;;;;;;;;;21.50;72.30;;;;;;6305739;22;19922;-69
2023/06/23 01:14:12;;;;;;;;;;;21.40;72.10;;;;;;6305714;22;19986;-69
2023/06/23 01:16:41;;;;;;;;;;;21.30;72.10;;;;;;6306036;22;19911;-68
2023/06/23 01:19:24;;;;;;;;;;;21.20;72.30;;;;;;6305884;22;19924;-69
2023/06/23 01:22:00;;;;;;;;;;;21.00;72.50;;;;;;6306197;22;20325;-69
2023/06/23 01:24:46;;;;;;;;;;;21.00;72.50;;;;;;6305738;22;19993;-69
2023/06/23 01:27:23;;;;;;;;;;;20.90;72.70;;;;;;6227796;22;20328;-68
2023/06/23 01:29:52;;;;;;;;;;;20.80;72.80;;;;;;6305850;22;19945;-69
2023/06/23 01:32:27;;;;;;;;;;;20.80;72.90;;;;;;6306112;22;20309;-68
2023/06/23 01:34:54;;;;;;;;;;;20.70;73.00;;;;;;6305760;22;19907;-69
2023/06/23 01:37:21;;;;;;;;;;;20.70;73.10;;;;;;6306190;22;19986;-68
2023/06/23 01:39:49;;;;;;;;;;;20.70;73.10;;;;;;6305470;22;19978;-69
2023/06/23 01:42:17;;;;;;;;;;;20.70;73.30;;;;;;6306074;22;20309;-68
2023/06/23 01:44:50;;;;;;;;;;;20.70;73.20;;;;;;6305852;22;20333;-69
2023/06/23 01:47:17;;;;;;;;;;;20.60;73.40;;;;;;6305926;22;19918;-68
2023/06/23 01:49:43;;;;;;;;;;;20.60;73.40;;;;;;6305103;22;19996;-69
2023/06/23 01:52:09;;;;;;;;;;;20.60;73.40;;;;;;6305777;22;19911;-69
2023/06/23 01:54:38;;;;;;;;;;;20.60;73.60;;;;;;6305464;22;19949;-71
2023/06/23 01:57:04;;;;;;;;;;;20.60;73.70;;;;;;6306386;22;20327;-70
2023/06/23 01:59:31;;;;;;;;;;;20.70;73.70;;;;;;6306088;22;19925;-68
2023/06/23 02:01:58;;;;;;;;;;;20.60;73.70;;;;;;6305944;22;20450;-68
2023/06/23 02:04:24;;;;;;;;;;;20.60;73.80;;;;;;6305299;22;20287;-68
2023/06/23 02:06:50;;;;;;;;;;;20.60;73.70;;;;;;6278351;22;19911;-68
2023/06/23 02:09:18;;;;;;;;;;;20.60;73.40;;;;;;6305611;22;19903;-68
2023/06/23 02:11:45;;;;;;;;;;;20.50;73.40;;;;;;6305766;22;20309;-68
2023/06/23 02:14:11;;;;;;;;;;;20.50;73.40;;;;;;6305638;22;19910;-69
2023/06/23 02:16:38;;;;;;;;;;;20.40;73.20;;;;;;6306154;22;19985;-69
2023/06/23 02:19:04;;;;;;;;;;;20.40;73.30;;;;;;6305537;22;19910;-69
2023/06/23 02:21:31;;;;;;;;;;;20.40;73.40;;;;;;6306276;22;19921;-69
2023/06/23 02:24:02;;;;;;;;;;;20.40;73.40;;;;;;6305410;22;19911;-68
2023/06/23 02:26:27;;;;;;;;;;;20.30;73.30;;;;;;6305867;22;19914;-69
2023/06/23 02:28:54;;;;;;;;;;;20.30;73.30;;;;;;6305547;22;19910;-68
2023/06/23 02:31:23;;;;;;;;;;;20.30;73.30;;;;;;6305927;22;20305;-68
2023/06/23 02:33:48;;;;;;;;;;;20.20;73.30;;;;;;6305112;22;19911;-68
2023/06/23 02:36:17;;;;;;;;;;;20.20;73.30;;;;;;6305904;22;19913;-70
2023/06/23 02:38:43;;;;;;;;;;;20.20;73.30;;;;;;6305454;22;19914;-69
2023/06/23 02:41:10;;;;;;;;;;;20.20;73.40;;;;;;6305320;22;19907;-69
2023/06/23 02:43:39;;;;;;;;;;;20.10;73.40;;;;;;6305472;22;19953;-68
2023/06/23 02:46:05;;;;;;;;;;;20.20;73.40;;;;;;6305540;22;19907;-68
2023/06/23 02:48:35;;;;;;;;;;;20.10;73.40;;;;;;6305451;22;20344;-68
2023/06/23 02:51:01;;;;;;;;;;;20.10;73.40;;;;;;6305584;22;19907;-68
2023/06/23 02:53:28;;;;;;;;;;;20.10;73.50;;;;;;6305049;22;20332;-69
2023/06/23 02:56:01;;;;;;;;;;;20.10;73.50;;;;;;6305223;22;20438;-68
2023/06/23 02:58:28;;;;;;;;;;;20.00;73.50;;;;;;6278028;22;19907;-68
2023/06/23 03:00:55;;;;;;;;;;;20.00;73.40;;;;;;6305388;22;19961;-68
2023/06/23 03:03:21;;;;;;;;;;;20.00;73.50;;;;;;6306588;22;19957;-68
2023/06/23 03:05:47;;;;;;;;;;;20.00;73.40;;;;;;6307437;22;19903;-68
2023/06/23 03:08:12;;;;;;;;;;;19.90;73.40;;;;;;6307286;22;19903;-68
2023/06/23 03:10:38;;;;;;;;;;;19.90;73.40;;;;;;6307102;22;19913;-68
2023/06/23 03:13:04;;;;;;;;;;;19.90;73.40;;;;;;6306524;22;19907;-68
2023/06/23 03:15:29;;;;;;;;;;;19.90;73.40;;;;;;6279437;22;20321;-68
2023/06/23 03:18:03;;;;;;;;;;;19.80;73.50;;;;;;6307501;22;19933;-68
2023/06/23 03:20:43;;;;;;;;;;;19.80;73.60;;;;;;6307216;22;20340;-68
2023/06/23 03:23:11;;;;;;;;;;;19.80;73.40;;;;;;6279684;22;19938;-68
2023/06/23 03:25:37;;;;;;;;;;;19.80;73.50;;;;;;6279613;22;20329;-68
2023/06/23 03:28:05;;;;;;;;;;;19.80;73.40;;;;;;6306331;22;19914;-68
2023/06/23 03:30:43;;;;;;;;;;;19.80;73.50;;;;;;6307171;22;20240;-67
2023/06/23 03:33:12;;;;;;;;;;;19.80;73.50;;;;;;6306545;22;19911;-68
2023/06/23 03:35:40;;;;;;;;;;;19.80;73.70;;;;;;6279660;22;19930;-68
2023/06/23 03:38:08;;;;;;;;;;;19.80;73.70;;;;;;6306871;22;19980;-69
2023/06/23 03:40:37;;;;;;;;;;;19.80;73.80;;;;;;6307030;22;19909;-68
2023/06/23 03:43:06;;;;;;;;;;;19.80;73.90;;;;;;6279537;22;20001;-69
2023/06/23 03:45:32;;;;;;;;;;;19.90;74.00;;;;;;6279583;22;19907;-69
2023/06/23 03:48:03;;;;;;;;;;;20.00;74.00;;;;;;6279590;22;19915;-67
2023/06/23 03:50:30;;;;;;;;;;;20.00;74.00;;;;;;6279955;22;19978;-68
2023/06/23 03:52:57;;;;;;;;;;;20.00;74.00;;;;;;6307662;22;20194;-67
2023/06/23 03:55:24;;;;;;;;;;;20.10;74.00;;;;;;6306715;22;19925;-67
2023/06/23 03:57:51;;;;;;;;;;;20.10;73.90;;;;;;6307351;22;20217;-68
2023/06/23 04:00:19;;;;;;;;;;;20.20;74.00;;;;;;6306928;22;20348;-68
2023/06/23 04:02:45;;;;;;;;;;;20.20;73.90;;;;;;6307186;22;19911;-68
2023/06/23 04:05:13;;;;;;;;;;;20.20;73.80;;;;;;6306542;22;20282;-68
2023/06/23 04:07:42;;;;;;;;;;;20.20;73.70;;;;;;6307231;22;19907;-68
2023/06/23 04:10:08;;;;;;;;;;;20.20;73.70;;;;;;6306661;22;19942;-68
2023/06/23 04:12:34;;;;;;;;;;;20.10;73.70;;;;;;6306878;22;20201;-69
2023/06/23 04:15:00;;;;;;;;;;;20.20;73.70;;;;;;6306671;22;19911;-68
2023/06/23 04:17:27;;;;;;;;;;;20.20;73.60;;;;;;6306926;22;19911;-68
2023/06/23 04:19:55;;;;;;;;;;;20.10;73.60;;;;;;6306316;22;19922;-68
2023/06/23 04:22:22;;;;;;;;;;;20.10;73.70;;;;;;6279039;22;20332;-67
2023/06/23 04:24:48;;;;;;;;;;;20.10;73.70;;;;;;6306190;22;19929;-67
2023/06/23 04:27:16;;;;;;;;;;;20.10;73.70;;;;;;6306792;22;20309;-67
2023/06/23 04:29:43;;;;;;;;;;;20.10;73.60;;;;;;6305508;22;20336;-69
2023/06/23 04:32:09;;;;;;;;;;;20.10;73.70;;;;;;6279033;22;20044;-69
2023/06/23 04:34:35;;;;;;;;;;;20.10;73.60;;;;;;6306647;22;20280;-68
2023/06/23 04:37:05;;;;;;;;;;;20.10;73.60;;;;;;6306672;22;19977;-68
2023/06/23 04:39:36;;;;;;;;;;;20.10;73.60;;;;;;6305832;22;19981;-68
2023/06/23 04:42:02;;;;;;;;;;;20.10;73.70;;;;;;6306506;22;19914;-67
2023/06/23 04:44:29;;;;;;;;;;;20.10;73.70;;;;;;6306149;22;19911;-68
2023/06/23 04:46:57;;;;;;;;;;;20.10;73.70;;;;;;6306517;22;19907;-67
2023/06/23 04:49:24;;;;;;;;;;;20.10;73.80;;;;;;6305752;22;20308;-68
2023/06/23 04:51:50;;;;;;;;;;;20.10;73.80;;;;;;6306371;22;20255;-67
2023/06/23 04:54:18;;;;;;;;;;;20.10;73.70;;;;;;6305711;22;19915;-68
2023/06/23 04:56:47;;;;;;;;;;;20.10;73.70;;;;;;6306153;22;19907;-68
2023/06/23 04:59:14;;;;;;;;;;;20.10;73.70;;;;;;6278648;22;19934;-69
2023/06/23 05:01:41;;;;;;;;;;;20.10;73.60;;;;;;6306196;22;19989;-68
2023/06/23 05:04:07;;;;;;;;;;;20.10;73.60;;;;;;6305879;22;19911;-68
2023/06/23 05:06:33;;;;;;;;;;;20.00;73.60;;;;;;6306449;22;19952;-67
2023/06/23 05:08:59;;;;;;;;;;;20.00;73.50;;;;;;6306114;22;20325;-68
2023/06/23 05:11:25;;;;;;;;;;;20.00;73.50;;;;;;6306197;22;19907;-67
2023/06/23 05:13:51;;;;;;;;;;;20.00;73.50;;;;;;6305889;22;19911;-68
2023/06/23 05:16:17;;;;;;;;;;;20.00;73.60;;;;;;6306154;22;19990;-68
2023/06/23 05:18:44;;;;;;;;;;;20.00;73.60;;;;;;6305990;22;19911;-68
2023/06/23 05:21:10;;;;;;;;;;;20.00;73.60;;;;;;6306606;22;19907;-68
2023/06/23 05:23:39;;;;;;;;;;;20.00;73.60;;;;;;6305940;22;19918;-68
2023/06/23 05:26:06;;;;;;;;;;;20.00;73.70;;;;;;6305563;22;20483;-68
2023/06/23 05:28:34;;;;;;;;;;;20.00;73.70;;;;;;6305877;22;19946;-68
2023/06/23 05:31:00;;;;;;;;;;;20.00;73.60;;;;;;6305964;22;19907;-68
2023/06/23 05:33:26;;;;;;;;;;;20.00;73.60;;;;;;6305312;22;19910;-68
2023/06/23 05:35:52;;;;;;;;;;;20.00;73.70;;;;;;6304334;22;19903;-68
2023/06/23 05:38:18;;;;;;;;;;;20.00;73.70;;;;;;6303476;22;19982;-68
2023/06/23 05:40:44;;;;;;;;;;;20.10;73.80;;;;;;6304964;22;19952;-67
2023/06/23 05:43:09;;;;;;;;;;;20.10;73.80;;;;;;6300186;22;19911;-68
2023/06/23 05:45:35;;;;;;;;;;;20.10;73.80;;;;;;6294651;22;19907;-68
2023/06/23 05:48:10;;;;;;;;;;;20.20;73.90;;;;;;6297310;22;19918;-68
2023/06/23 05:50:37;;;;;;;;;;;20.20;74.00;;;;;;6298625;22;19945;-68
2023/06/23 05:53:04;;;;;;;;;;;20.20;74.00;;;;;;6296737;22;19911;-68
2023/06/23 05:55:30;;;;;;;;;;;20.30;73.90;;;;;;6301204;22;19965;-68
2023/06/23 05:58:00;;;;;;;;;;;20.30;73.90;;;;;;6302281;22;21430;-68
2023/06/23 06:00:31;;;;;;;;;;;20.30;74.00;;;;;;6304123;22;19910;-68
2023/06/23 06:02:58;;;;;;;;;;;20.30;74.00;;;;;;6302966;22;19921;-68
2023/06/23 06:05:25;;;;;;;;;;;20.30;74.00;;;;;;6302923;22;19914;-69
2023/06/23 06:07:51;;;;;;;;;;;20.40;74.00;;;;;;6305374;22;20313;-68
2023/06/23 06:10:18;;;;;;;;;;;20.40;74.00;;;;;;6305706;22;19903;-68
2023/06/23 06:12:44;;;;;;;;;;;20.50;74.00;;;;;;6304636;22;19914;-68
2023/06/23 06:15:10;;;;;;;;;;;20.40;73.90;;;;;;6305249;22;19965;-68
2023/06/23 06:17:38;;;;;;;;;;;20.50;73.90;;;;;;6304840;22;20313;-68
2023/06/23 06:20:04;;;;;;;;;;;20.50;73.80;;;;;;6305209;22;19978;-69
2023/06/23 06:22:31;;;;;;;;;;;20.50;73.70;;;;;;6305796;22;19931;-68
2023/06/23 06:24:57;;;;;;;;;;;20.40;73.60;;;;;;6301477;22;20363;-68
2023/06/23 06:27:22;;;;;;;;;;;20.40;73.50;;;;;;6305256;22;19911;-68
2023/06/23 06:29:48;;;;;;;;;;;20.40;73.50;;;;;;6303653;22;19910;-69
2023/06/23 06:32:14;;;;;;;;;;;20.40;73.50;;;;;;6305003;22;19942;-69
2023/06/23 06:34:41;;;;;;;;;;;20.40;73.30;;;;;;6305271;22;19935;-69
2023/06/23 06:37:07;;;;;;;;;;;20.30;73.30;;;;;;6306172;22;20205;-68
2023/06/23 06:39:33;;;;;;;;;;;20.30;73.30;;;;;;6279069;22;19907;-68
2023/06/23 06:41:59;;;;;;;;;;;20.20;73.40;;;;;;6307628;22;19915;-67
2023/06/23 06:44:25;;;;;;;;;;;20.20;73.50;;;;;;6307014;22;19948;-67
2023/06/23 06:46:52;;;;;;;;;;;20.30;73.50;;;;;;6305751;22;19915;-68
2023/06/23 06:49:18;;;;;;;;;;;20.20;73.40;;;;;;6306362;22;20317;-68
2023/06/23 06:51:44;;;;;;;;;;;20.20;73.40;;;;;;6307702;22;19972;-68
2023/06/23 06:54:10;;;;;;;;;;;20.20;73.60;;;;;;6307321;22;19977;-67
2023/06/23 06:56:35;;;;;;;;;;;20.20;73.40;;;;;;6306642;22;19941;-67
2023/06/23 06:59:01;;;;;;;;;;;20.20;73.50;;;;;;6307037;22;19941;-68
2023/06/23 07:01:27;;;;;;;;;;;20.20;73.40;;;;;;6279247;22;19919;-68
2023/06/23 07:03:53;;;;;;;;;;;20.20;73.50;;;;;;6307378;22;19915;-68
2023/06/23 07:06:19;;;;;;;;;;;20.20;73.50;;;;;;6279723;22;19915;-67
2023/06/23 07:08:44;;;;;;;;;;;20.20;73.70;;;;;;6306846;22;20274;-67
2023/06/23 07:11:10;;;;;;;;;;;20.20;73.60;;;;;;6306577;22;19915;-67
2023/06/23 07:13:36;;;;;;;;;;;20.20;73.60;;;;;;6306988;22;19910;-67
2023/06/23 07:16:01;;;;;;;;;;;20.30;73.60;;;;;;6307125;22;19986;-68
2023/06/23 07:18:28;;;;;;;;;;;20.30;73.60;;;;;;6306938;22;20324;-69
2023/06/23 07:20:54;;;;;;;;;;;20.30;73.70;;;;;;6307341;22;19941;-68
2023/06/23 07:23:19;;;;;;;;;;;20.30;73.60;;;;;;6306769;22;19907;-68
2023/06/23 07:25:44;;;;;;;;;;;20.30;73.80;;;;;;6306931;22;19903;-68
2023/06/23 07:28:10;;;;;;;;;;;20.30;73.60;;;;;;6306661;22;20232;-67
2023/06/23 07:30:37;;;;;;;;;;;20.30;73.60;;;;;;6306870;22;19903;-68
2023/06/23 07:33:03;;;;;;;;;;;20.40;73.80;;;;;;6306763;22;19903;-68
2023/06/23 07:35:28;;;;;;;;;;;20.40;73.80;;;;;;6280161;22;19948;-68
2023/06/23 07:37:53;;;;;;;;;;;20.40;73.90;;;;;;6307759;22;19911;-68
2023/06/23 07:40:19;;;;;;;;;;;20.50;74.00;;;;;;6306822;22;20278;-68
2023/06/23 07:42:44;;;;;;;;;;;20.60;74.00;;;;;;6307282;22;19919;-68
2023/06/23 07:45:10;;;;;;;;;;;20.60;74.00;;;;;;6306485;22;19982;-68
2023/06/23 07:47:35;;;;;;;;;;;20.70;73.90;;;;;;6306805;22;19915;-67
2023/06/23 07:50:00;;;;;;;;;;;20.70;74.10;;;;;;6305976;22;19914;-68
2023/06/23 07:52:26;;;;;;;;;;;20.80;74.20;;;;;;6306992;22;19967;-68
2023/06/23 07:54:51;;;;;;;;;;;20.80;73.90;;;;;;6306503;22;19915;-68
2023/06/23 07:57:17;;;;;;;;;;;20.90;73.90;;;;;;6307170;22;19965;-68
2023/06/23 07:59:42;;;;;;;;;;;20.90;74.00;;;;;;6305610;22;20317;-68
2023/06/23 08:02:08;;;;;;;;;;;20.90;73.80;;;;;;6307085;22;19963;-68
2023/06/23 08:04:33;;;;;;;;;;;21.00;73.90;;;;;;6305973;22;19993;-68
2023/06/23 08:06:59;;;;;;;;;;;21.10;73.90;;;;;;6279437;22;19915;-68
2023/06/23 08:09:24;;;;;;;;;;;21.10;73.80;;;;;;6306513;22;19902;-68
2023/06/23 08:11:49;;;;;;;;;;;21.10;73.60;;;;;;6306102;22;19947;-68
2023/06/23 08:14:15;;;;;;;;;;;21.10;73.50;;;;;;6306536;22;19930;-68
2023/06/23 08:16:40;;;;;;;;;;;21.10;73.40;;;;;;6305381;22;20241;-68
2023/06/23 08:19:06;;;;;;;;;;;21.10;73.60;;;;;;6306254;22;19911;-69
2023/06/23 08:21:31;;;;;;;;;;;21.20;73.80;;;;;;6306622;22;19903;-68
2023/06/23 08:23:57;;;;;;;;;;;21.20;73.60;;;;;;6305624;22;19968;-68
2023/06/23 08:26:22;;;;;;;;;;;21.30;73.80;;;;;;6306434;22;20325;-69
2023/06/23 08:28:48;;;;;;;;;;;21.30;74.10;;;;;;6306710;22;19911;-68
2023/06/23 08:31:13;;;;;;;;;;;21.50;74.10;;;;;;6305353;22;19926;-69
2023/06/23 08:33:40;;;;;;;;;;;21.60;73.90;;;;;;6306645;22;19911;-70
2023/06/23 08:36:05;;;;;;;;;;;21.70;73.90;;;;;;6306612;22;20210;-70
2023/06/23 08:38:31;;;;;;;;;;;21.70;73.70;;;;;;6305680;22;19997;-70
2023/06/23 08:40:56;;;;;;;;;;;21.70;73.50;;;;;;6305679;22;19918;-70
2023/06/23 08:43:28;;;;;;;;;;;21.80;73.50;;;;;;6306176;22;19966;-70
2023/06/23 08:45:58;;;;;;;;;;;21.70;73.40;;;;;;6278680;22;20321;-70
2023/06/23 08:48:25;;;;;;;;;;;21.80;73.80;;;;;;6306132;22;19935;-70
2023/06/23 08:50:52;;;;;;;;;;;21.90;73.50;;;;;;6305777;22;19918;-70
2023/06/23 08:53:17;;;;;;;;;;;21.90;73.60;;;;;;6306251;22;19918;-70
2023/06/23 08:55:43;;;;;;;;;;;21.90;73.40;;;;;;6305360;22;20324;-70
2023/06/23 08:58:09;;;;;;;;;;;22.00;73.50;;;;;;6306284;22;20213;-70
2023/06/23 09:00:36;;;;;;;;;;;22.10;73.70;;;;;;6304711;22;19903;-70
2023/06/23 09:03:03;;;;;;;;;;;22.20;73.80;;;;;;6306150;22;19915;-70
2023/06/23 09:05:28;;;;;;;;;;;22.20;73.60;;;;;;6305996;22;19960;-70
2023/06/23 09:07:54;;;;;;;;;;;22.30;73.40;;;;;;6305445;22;19911;-70
2023/06/23 09:10:19;;;;;;;;;;;22.30;73.40;;;;;;6305869;22;19909;-70
2023/06/23 09:13:05;;;;;;;;;;;22.30;73.20;;;;;;6306287;22;19907;-71
2023/06/23 09:15:30;;;;;;;;;;;22.30;73.20;;;;;;6202270;22;19903;-71
2023/06/23 09:17:57;;;;;;;;;;;22.30;73.20;;;;;;6305429;22;20340;-71
2023/06/23 09:20:23;;;;;;;;;;;22.30;73.00;;;;;;6278511;22;19902;-70
2023/06/23 09:22:49;;;;;;;;;;;22.30;73.10;;;;;;6306114;22;20233;-71
2023/06/23 09:25:37;;;;;;;;;;;22.30;73.40;;;;;;6305053;22;19918;-72
2023/06/23 09:28:04;;;;;;;;;;;22.40;73.30;;;;;;6285563;22;19911;-70
2023/06/23 09:30:33;;;;;;;;;;;22.50;73.30;;;;;;6305029;22;20350;-71
2023/06/23 09:33:05;;;;;;;;;;;22.50;73.20;;;;;;6304979;22;19911;-71
2023/06/23 09:35:30;;;;;;;;;;;22.50;73.20;;;;;;6306135;22;19981;-71
2023/06/23 09:37:56;;;;;;;;;;;22.60;73.40;;;;;;6305650;22;20356;-71
2023/06/23 09:40:28;;;;;;;;;;;22.70;73.30;;;;;;6305473;22;19903;-71
2023/06/23 09:42:57;;;;;;;;;;;22.80;73.30;;;;;;6305593;22;20383;-71
2023/06/23 09:45:23;;;;;;;;;;;22.80;73.30;;;;;;6305144;22;19903;-71
2023/06/23 09:47:49;;;;;;;;;;;22.90;73.30;;;;;;6278518;22;19903;-71
2023/06/23 09:50:15;;;;;;;;;;;23.00;73.30;;;;;;6305101;22;19903;-70
2023/06/23 09:52:41;;;;;;;;;;;23.10;73.10;;;;;;6305462;22;20231;-70
2023/06/23 09:55:07;;;;;;;;;;;23.20;73.20;;;;;;6277732;22;19918;-70
2023/06/23 09:57:32;;;;;;;;;;;23.30;73.20;;;;;;6305679;22;19907;-71
2023/06/23 09:59:58;;;;;;;;;;;23.40;73.00;;;;;;6304850;22;19957;-70
2023/06/23 10:02:25;;;;;;;;;;;23.50;73.10;;;;;;6305603;22;19906;-70
2023/06/23 10:04:51;;;;;;;;;;;23.60;73.00;;;;;;6306149;22;19915;-70
2023/06/23 10:07:20;;;;;;;;;;;23.70;73.10;;;;;;6306116;22;19996;-71
2023/06/23 10:09:51;;;;;;;;;;;23.80;73.20;;;;;;6306040;22;19918;-70
2023/06/23 10:12:21;;;;;;;;;;;23.80;72.90;;;;;;6306556;22;19989;-71
2023/06/23 10:14:47;;;;;;;;;;;23.80;73.00;;;;;;6306921;22;20400;-71
2023/06/23 10:17:13;;;;;;;;;;;23.90;73.10;;;;;;6306664;22;20453;-71
2023/06/23 10:19:38;;;;;;;;;;;24.00;73.00;;;;;;6307671;22;19918;-71
2023/06/23 10:22:04;;;;;;;;;;;24.10;72.90;;;;;;6307594;22;19975;-69
2023/06/23 10:24:31;;;;;;;;;;;24.10;73.00;;;;;;6307434;22;19915;-69
2023/06/23 10:26:58;;;;;;;;;;;24.20;73.30;;;;;;6307554;22;19910;-69
2023/06/23 10:29:24;;;;;;;;;;;24.50;73.70;;;;;;6307557;22;20233;-69
2023/06/23 10:31:51;;;;;;;;;;;24.70;73.50;;;;;;6307383;22;19910;-70
2023/06/23 10:34:18;;;;;;;;;;;24.90;73.50;;;;;;6280425;22;19911;-70
2023/06/23 10:36:47;;;;;;;;;;;25.10;73.30;;;;;;6307446;22;19914;-72
2023/06/23 10:39:14;;;;;;;;;;;25.30;73.10;;;;;;6308032;22;19910;-70
2023/06/23 10:41:40;;;;;;;;;;;25.40;72.90;;;;;;6307663;22;19903;-72
2023/06/23 10:44:06;;;;;;;;;;;25.50;73.20;;;;;;6307321;22;19960;-69
2023/06/23 10:46:33;;;;;;;;;;;25.60;73.00;;;;;;6307540;22;20217;-69
2023/06/23 10:48:59;;;;;;;;;;;25.80;73.00;;;;;;6307474;22;19911;-70
2023/06/23 10:51:25;;;;;;;;;;;25.80;72.90;;;;;;6307244;22;19911;-70
2023/06/23 10:54:00;;;;;;;;;;;25.90;72.60;;;;;;6307273;22;19961;-70
2023/06/23 10:56:30;;;;;;;;;;;25.90;72.60;;;;;;6306878;22;19915;-70
2023/06/23 10:58:55;;;;;;;;;;;25.90;72.70;;;;;;6279828;22;19907;-70
2023/06/23 11:01:20;;;;;;;;;;;25.90;72.30;;;;;;6307187;22;19911;-70
2023/06/23 11:03:49;;;;;;;;;;;25.90;72.40;;;;;;6305652;22;20343;-70
2023/06/23 11:06:24;;;;;;;;;;;26.00;72.60;;;;;;6307020;22;20325;-70
2023/06/23 11:08:50;;;;;;;;;;;26.10;72.30;;;;;;6304971;22;20313;-70
2023/06/23 11:11:17;;;;;;;;;;;26.20;72.40;;;;;;6304932;22;19986;-70
2023/06/23 11:13:49;;;;;;;;;;;26.40;72.60;;;;;;6306770;22;19978;-70
2023/06/23 11:16:15;;;;;;;;;;;26.50;72.80;;;;;;6307029;22;19911;-70
2023/06/23 11:18:49;;;;;;;;;;;26.80;72.80;;;;;;6306058;22;19917;-71
2023/06/23 11:21:18;;;;;;;;;;;27.00;72.90;;;;;;6306910;22;19982;-71
2023/06/23 11:24:02;;;;;;;;;;;27.20;72.40;;;;;;6306312;22;20339;-71
2023/06/23 11:26:29;;;;;;;;;;;27.40;72.60;;;;;;6278551;22;19935;-71
2023/06/23 11:28:55;;;;;;;;;;;27.70;72.50;;;;;;6307125;22;19914;-71
2023/06/23 11:31:26;;;;;;;;;;;28.00;72.20;;;;;;6306606;22;20395;-71
2023/06/23 11:33:54;;;;;;;;;;;28.20;72.10;;;;;;6307211;22;20293;-71
2023/06/23 11:36:20;;;;;;;;;;;28.40;72.20;;;;;;6306293;22;19929;-71
2023/06/23 11:38:45;;;;;;;;;;;28.70;72.40;;;;;;6307042;22;19907;-71
2023/06/23 11:41:15;;;;;;;;;;;29.00;72.40;;;;;;6306798;22;19986;-71
2023/06/23 11:43:45;;;;;;;;;;;29.40;72.30;;;;;;6306314;22;20249;-72
2023/06/23 11:46:10;;;;;;;;;;;29.80;72.20;;;;;;6307456;22;19914;-72
2023/06/23 11:48:36;;;;;;;;;;;30.10;71.80;;;;;;6306145;22;19907;-71
2023/06/23 11:51:02;;;;;;;;;;;30.40;71.50;;;;;;6306659;22;19915;-72
2023/06/23 11:53:28;;;;;;;;;;;30.60;70.80;;;;;;6306928;22;19977;-72
2023/06/23 11:55:54;;;;;;;;;;;30.80;69.50;;;;;;6306221;22;20331;-72
2023/06/23 11:58:19;;;;;;;;;;;30.90;68.20;;;;;;6306852;22;19915;-72
2023/06/23 12:00:44;;;;;;;;;;;31.10;67.80;;;;;;6305364;22;19952;-72
2023/06/23 12:03:13;;;;;;;;;;;31.20;69.20;;;;;;6307008;22;19921;-73
2023/06/23 12:05:41;;;;;;;;;;;31.50;68.70;;;;;;6306144;22;20329;-73
2023/06/23 12:08:07;;;;;;;;;;;31.80;69.20;;;;;;6306482;22;19938;-72
2023/06/23 12:10:42;;;;;;;;;;;32.10;69.10;;;;;;6306497;22;20236;-73
2023/06/23 12:13:10;;;;;;;;;;;32.40;68.40;;;;;;6306258;22;20328;-72
2023/06/23 12:15:37;;;;;;;;;;;32.70;67.10;;;;;;6306487;22;19907;-73
2023/06/23 12:18:02;;;;;;;;;;;32.90;68.10;;;;;;6305888;22;19907;-74
2023/06/23 12:20:28;;;;;;;;;;;33.00;66.10;;;;;;6305546;22;19906;-73
2023/06/23 12:22:53;;;;;;;;;;;33.10;65.60;;;;;;6305443;22;19911;-74
2023/06/23 12:25:19;;;;;;;;;;;33.10;65.70;;;;;;6278092;22;20299;-73
2023/06/23 12:27:54;;;;;;;;;;;32.90;62.10;;;;;;6305825;22;19978;-74
2023/06/23 12:30:20;;;;;;;;;;;32.70;64.70;;;;;;6306021;22;19907;-74
2023/06/23 12:32:45;;;;;;;;;;;32.60;64.40;;;;;;6304684;22;19907;-74
2023/06/23 12:35:11;;;;;;;;;;;32.50;63.10;;;;;;6305765;22;19915;-75
2023/06/23 12:37:47;;;;;;;;;;;32.40;64.10;;;;;;6305048;22;19903;-70
2023/06/23 12:40:32;;;;;;;;;;;32.40;64.30;;;;;;6306149;22;19989;-70
2023/06/23 12:42:58;;;;;;;;;;;32.40;64.50;;;;;;6306172;22;20270;-70
2023/06/23 12:45:24;;;;;;;;;;;32.40;63.40;;;;;;6306532;22;20390;-71
2023/06/23 12:47:53;;;;;;;;;;;32.30;63.90;;;;;;6306552;22;19903;-71
2023/06/23 12:50:28;;;;;;;;;;;32.30;61.30;;;;;;6306167;22;19934;-70
2023/06/23 12:52:54;;;;;;;;;;;32.10;58.50;;;;;;6279118;22;19978;-70
2023/06/23 12:55:20;;;;;;;;;;;32.20;60.50;;;;;;6277817;22;20328;-70
2023/06/23 12:57:45;;;;;;;;;;;32.40;60.10;;;;;;6306127;22;19907;-70
2023/06/23 13:00:12;;;;;;;;;;;32.60;61.00;;;;;;6305827;22;20336;-70
2023/06/23 13:02:38;;;;;;;;;;;32.80;61.40;;;;;;6305745;22;19910;-70
2023/06/23 13:05:04;;;;;;;;;;;33.00;57.70;;;;;;6303113;22;19907;-70
2023/06/23 13:07:29;;;;;;;;;;;33.10;56.90;;;;;;6305845;22;19903;-71
2023/06/23 13:09:55;;;;;;;;;;;33.40;56.20;;;;;;6306490;22;20150;-70
2023/06/23 13:12:21;;;;;;;;;;;33.70;52.40;;;;;;6305934;22;19969;-69
2023/06/23 13:14:46;;;;;;;;;;;33.80;53.80;;;;;;6302176;22;19981;-68
2023/06/23 13:17:12;;;;;;;;;;;34.00;51.20;;;;;;6305603;22;19903;-71
2023/06/23 13:19:37;;;;;;;;;;;33.80;46.10;;;;;;6277719;22;20229;-71
2023/06/23 13:22:03;;;;;;;;;;;33.70;46.40;;;;;;6305433;22;19910;-71
2023/06/23 13:24:28;;;;;;;;;;;33.60;42.70;;;;;;6303035;22;19950;-70
2023/06/23 13:26:53;;;;;;;;;;;33.30;42.30;;;;;;6305433;22;19952;-70
2023/06/23 13:29:19;;;;;;;;;;;33.10;41.60;;;;;;6276780;22;20356;-77
2023/06/23 13:31:44;;;;;;;;;;;33.00;41.50;;;;;;6304171;22;20304;-77
2023/06/23 13:34:10;;;;;;;;;;;33.00;39.60;;;;;;6278553;22;19911;-77
2023/06/23 13:36:36;;;;;;;;;;;33.00;40.80;;;;;;6306225;22;20237;-71
2023/06/23 13:39:03;;;;;;;;;;;33.10;40.40;;;;;;6305566;22;19960;-75
2023/06/23 13:41:28;;;;;;;;;;;33.10;38.50;;;;;;6306123;22;19903;-77
2023/06/23 13:43:54;;;;;;;;;;;33.00;37.30;;;;;;6274476;22;20019;-73
2023/06/23 13:46:22;;;;;;;;;;;33.10;39.00;;;;;;6277860;22;19903;-78
2023/06/23 13:48:48;;;;;;;;;;;33.30;38.10;;;;;;6304180;22;19907;-76
2023/06/23 13:51:13;;;;;;;;;;;33.20;36.10;;;;;;6277916;22;19976;-78
2023/06/23 13:53:39;;;;;;;;;;;33.00;35.50;;;;;;6305298;22;19907;-75
2023/06/23 13:56:04;;;;;;;;;;;32.70;37.50;;;;;;6303376;22;20300;-69
2023/06/23 13:58:30;;;;;;;;;;;32.30;36.00;;;;;;6278625;22;20002;-70
2023/06/23 14:00:55;;;;;;;;;;;32.00;37.30;;;;;;6305524;22;19952;-70
2023/06/23 14:03:21;;;;;;;;;;;31.80;38.80;;;;;;6305248;22;19925;-77
2023/06/23 14:05:46;;;;;;;;;;;31.80;40.70;;;;;;6302360;22;19907;-76
2023/06/23 14:08:12;;;;;;;;;;;31.80;40.40;;;;;;6305698;22;19911;-79
2023/06/23 14:10:39;;;;;;;;;;;31.80;40.00;;;;;;6305621;22;20363;-78
2023/06/23 14:13:04;;;;;;;;;;;31.70;40.40;;;;;;6305886;22;20348;-76
2023/06/23 14:15:30;;;;;;;;;;;31.70;41.60;;;;;;6302701;22;19903;-76